This is the latest recevied weather packets stored in our database for station/object W0BJ-1. If no packets are shown the sender has not sent any weather packets the latest 10 day(s).
| Time | Temp. | Humidity | Pressure | Rain* | Wind** | Luminosity | Snow |
|---|---|---|---|---|---|---|---|
| 1777202739 | 10° C | 85% | 1014 hPa | 0 mm | - | 11 W/m² | - |
| 1777201839 | 10° C | 85% | 1014 hPa | 0 mm | - | 0 W/m² | - |
| 1777200350 | 10.56° C | 83% | 1013.7 hPa | 0 mm | - | 0 W/m² | - |
| 1777198838 | 10.56° C | 82% | 1013.9 hPa | 0 mm | - | 0 W/m² | - |
| 1777197338 | 11.11° C | 81% | 1013.8 hPa | 0 mm | - | 0 W/m² | - |
| 1777193741 | 11.67° C | 78% | 1013.7 hPa | 0 mm | - | 0 W/m² | - |
| 1777192253 | 12.22° C | 76% | 1013.6 hPa | 0 mm | - | 0 W/m² | - |
| 1777190140 | 12.78° C | 74% | 1013.4 hPa | 0 mm | - | 0 W/m² | - |
| 1777189840 | 12.78° C | 74% | 1013.5 hPa | 0 mm | - | 0 W/m² | - |
| 1777187776 | 13.33° C | 71% | 1013.8 hPa | 0 mm | - | 0 W/m² | - |
| 1777186542 | 13.89° C | 70% | 1013.7 hPa | 0 mm | - | 0 W/m² | - |
| 1777180565 | 16.11° C | 60% | 1013.6 hPa | 0 mm | - | 0 W/m² | - |
| 1777179939 | 16.11° C | 60% | 1013.6 hPa | 0 mm | - | 0 W/m² | - |
| 1777179662 | 16.11° C | 60% | 1013.5 hPa | 0 mm | - | 0 W/m² | - |
| 1777178139 | 15.56° C | 61% | 1013.3 hPa | 0 mm | - | 0 W/m² | - |
| 1777177238 | 15.56° C | 60% | 1013.3 hPa | 0 mm | - | 0 W/m² | - |
| 1777176339 | 15.56° C | 59% | 1013.5 hPa | 0 mm | - | 0 W/m² | - |
| 1777174541 | 16.11° C | 60% | 1013.1 hPa | 0 mm | - | 0 W/m² | - |
| 1777170661 | 16.67° C | 55% | 1012.9 hPa | 0 mm | - | 0 W/m² | - |
| 1777170341 | 16.67° C | 55% | 1012.7 hPa | 0 mm | - | 0 W/m² | - |
| 1777167341 | 18.33° C | 53% | 1011.9 hPa | 0 mm | - | 0 W/m² | - |
| 1777165844 | 19.44° C | 50% | 1012 hPa | 0 mm | - | 0 W/m² | - |
| 1777164940 | 20° C | 48% | 1012.1 hPa | 0 mm | - | 0 W/m² | - |
| 1777162555 | 22.22° C | 46% | 1012 hPa | 0 mm | - | 21 W/m² | - |
| 1777161653 | 22.22° C | 44% | 1012 hPa | 0 mm | - | 40 W/m² | - |
* Rain latest hour (hover to see other rain measurements)
** Current wind speed in m/s (hover to see current wind gust speed)